Time;durP1;ratioP1;P1;durP2;ratioP2;P2;SDS_P1;SDS_P2;PMS_P1;PMS_P2;Temp;Humidity;BMP_temperature;BMP_pressure;BME280_temperature;BME280_humidity;BME280_pressure;Samples;Min_cycle;Max_cycle;Signal;HPM_P1;HPM_P2
2023/05/15 07:28:59;;;;;;;19.17;9.87;;;15.30;99.90;;;;;;5016224;23;20483;-69
2023/05/15 07:31:28;;;;;;;21.97;10.73;;;15.10;99.90;;;;;;4907475;29;20239;-69
2023/05/15 07:33:55;;;;;;;20.93;10.47;;;15.60;99.90;;;;;;4913602;29;20209;-69
2023/05/15 07:36:21;;;;;;;21.43;10.50;;;15.80;99.90;;;;;;4935928;29;20229;-69
2023/05/15 07:38:48;;;;;;;23.13;11.03;;;16.00;99.90;;;;;;4935864;29;20300;-69
2023/05/15 07:41:15;;;;;;;25.57;12.03;;;16.00;99.90;;;;;;4935843;29;20346;-70
2023/05/15 07:43:42;;;;;;;27.37;12.33;;;15.90;99.90;;;;;;4936039;29;20231;-69
2023/05/15 07:46:09;;;;;;;22.20;11.07;;;16.00;99.90;;;;;;4927151;29;20287;-70
2023/05/15 07:48:38;;;;;;;24.00;11.77;;;16.10;99.90;;;;;;4916717;29;20206;-69
2023/05/15 07:51:05;;;;;;;25.07;11.90;;;16.50;99.90;;;;;;4916740;29;20237;-71
2023/05/15 07:53:32;;;;;;;20.17;11.00;;;16.90;99.90;;;;;;4916847;29;20209;-71
2023/05/15 07:55:59;;;;;;;21.70;11.13;;;17.30;99.90;;;;;;4916301;29;20779;-71
2023/05/15 07:58:26;;;;;;;20.43;11.10;;;17.50;99.90;;;;;;4916206;29;20296;-71
2023/05/15 08:00:53;;;;;;;19.83;10.90;;;18.10;99.90;;;;;;4916590;29;20601;-71
2023/05/15 08:03:20;;;;;;;22.77;11.25;;;18.80;99.90;;;;;;4916560;29;20241;-71
2023/05/15 08:05:48;;;;;;;25.02;12.07;;;19.00;99.90;;;;;;4916759;29;20264;-71
2023/05/15 08:08:15;;;;;;;21.27;11.07;;;19.00;99.90;;;;;;4917998;29;20244;-71
2023/05/15 08:10:42;;;;;;;21.67;11.18;;;19.10;99.90;;;;;;4920497;29;20209;-71
2023/05/15 08:13:08;;;;;;;21.27;11.20;;;19.20;99.90;;;;;;4920817;29;20244;-71
2023/05/15 08:15:35;;;;;;;21.15;11.23;;;18.90;99.90;;;;;;4920223;29;20237;-71
2023/05/15 08:18:07;;;;;;;22.70;11.48;;;19.10;99.90;;;;;;4919976;29;20763;-71
2023/05/15 08:20:34;;;;;;;22.40;10.98;;;19.40;99.90;;;;;;4919987;29;20649;-71
2023/05/15 08:23:02;;;;;;;20.80;11.40;;;20.00;99.90;;;;;;4931062;29;20291;-71
2023/05/15 08:25:29;;;;;;;19.73;11.65;;;20.30;99.90;;;;;;4925402;29;20394;-71
2023/05/15 08:27:56;;;;;;;22.02;10.75;;;19.90;99.90;;;;;;4920191;29;20640;-71
2023/05/15 08:30:23;;;;;;;21.33;11.23;;;19.60;99.90;;;;;;4920086;29;20248;-71
2023/05/15 08:32:50;;;;;;;22.42;11.20;;;19.20;99.90;;;;;;4920202;29;20213;-70
2023/05/15 08:35:17;;;;;;;17.52;10.55;;;19.00;99.90;;;;;;4920034;29;20245;-71
2023/05/15 08:37:44;;;;;;;17.75;10.65;;;19.00;99.90;;;;;;4919670;29;20807;-71
2023/05/15 08:40:13;;;;;;;21.17;11.13;;;19.50;99.90;;;;;;4919729;29;20738;-71
2023/05/15 08:42:44;;;;;;;17.85;10.88;;;19.70;99.90;;;;;;4919941;29;20757;-71
2023/05/15 08:45:12;;;;;;;18.95;11.18;;;19.70;99.90;;;;;;4919906;29;20241;-71
2023/05/15 08:47:41;;;;;;;17.40;9.90;;;19.30;99.90;;;;;;4920277;29;20657;-71
2023/05/15 08:50:12;;;;;;;19.63;10.63;;;19.50;99.90;;;;;;4919721;29;20244;-71
2023/05/15 08:52:41;;;;;;;20.20;11.02;;;19.50;99.90;;;;;;4919963;29;20617;-71
2023/05/15 08:55:09;;;;;;;17.83;9.93;;;19.50;99.90;;;;;;4920034;29;20221;-71
2023/05/15 08:57:38;;;;;;;22.42;11.38;;;19.40;99.90;;;;;;4919557;29;20820;-71
2023/05/15 09:00:07;;;;;;;19.02;11.02;;;19.40;99.90;;;;;;4919631;29;20249;-71
2023/05/15 09:02:35;;;;;;;20.42;11.00;;;19.20;99.90;;;;;;4919592;29;20616;-71
2023/05/15 09:05:02;;;;;;;17.70;10.38;;;19.40;99.90;;;;;;4919915;29;20237;-70
2023/05/15 09:07:30;;;;;;;18.08;10.85;;;19.60;99.90;;;;;;4919598;29;20237;-70
2023/05/15 09:09:57;;;;;;;18.70;10.73;;;20.20;99.90;;;;;;4919782;29;20216;-70
2023/05/15 09:12:25;;;;;;;22.45;10.73;;;20.20;99.90;;;;;;4919630;29;20221;-70
2023/05/15 09:15:08;;;;;;;20.48;9.95;;;19.90;99.90;;;;;;4919430;29;20277;-71
2023/05/15 09:17:35;;;;;;;17.88;10.68;;;19.70;99.90;;;;;;4919516;29;20352;-70
2023/05/15 09:20:04;;;;;;;21.00;10.27;;;19.90;99.90;;;;;;4919324;29;20300;-70
2023/05/15 09:22:35;;;;;;;19.95;11.23;;;20.10;99.90;;;;;;4919516;29;20241;-70
2023/05/15 09:25:03;;;;;;;17.05;10.48;;;20.20;99.90;;;;;;4919677;29;20240;-71
2023/05/15 09:27:30;;;;;;;18.52;10.88;;;20.40;99.90;;;;;;4919160;29;20232;-70
2023/05/15 09:30:09;;;;;;;18.23;11.48;;;20.60;99.90;;;;;;4918835;29;20225;-70
2023/05/15 09:32:37;;;;;;;18.33;10.82;;;20.60;99.90;;;;;;4919212;29;20217;-71
2023/05/15 09:35:05;;;;;;;18.40;10.60;;;21.00;99.90;;;;;;4918998;29;20216;-70
2023/05/15 09:37:35;;;;;;;21.20;11.25;;;20.80;99.90;;;;;;4921709;29;20239;-72
2023/05/15 09:40:10;;;;;;;18.65;10.30;;;20.70;99.90;;;;;;4922332;29;20993;-71
2023/05/15 09:42:37;;;;;;;19.25;10.55;;;20.70;99.90;;;;;;4919692;29;20390;-70
2023/05/15 09:45:16;;;;;;;21.27;10.93;;;21.00;99.90;;;;;;4919066;29;20237;-71
2023/05/15 09:47:43;;;;;;;18.58;11.45;;;20.90;99.90;;;;;;4920446;29;20291;-73
2023/05/15 09:50:11;;;;;;;20.15;10.60;;;21.00;99.90;;;;;;4922036;29;20253;-73
2023/05/15 09:52:38;;;;;;;17.33;10.18;;;21.20;99.90;;;;;;4921379;29;20245;-73
2023/05/15 09:55:06;;;;;;;16.75;9.73;;;21.10;99.90;;;;;;4921675;29;20252;-73
2023/05/15 09:57:33;;;;;;;21.25;12.35;;;20.80;99.90;;;;;;4921087;29;20269;-72
2023/05/15 10:00:04;;;;;;;18.45;10.60;;;21.10;99.90;;;;;;4920322;29;20209;-72
2023/05/15 10:02:33;;;;;;;16.88;10.10;;;20.90;99.90;;;;;;4918893;29;20248;-73
2023/05/15 10:05:01;;;;;;;19.58;10.52;;;20.90;99.90;;;;;;4919069;29;20221;-72
2023/05/15 10:07:29;;;;;;;18.25;10.45;;;20.70;99.90;;;;;;4919194;29;20282;-73
2023/05/15 10:09:56;;;;;;;16.85;10.32;;;20.80;99.90;;;;;;4918550;29;20220;-73
2023/05/15 10:12:24;;;;;;;16.77;10.13;;;20.80;99.90;;;;;;4918678;29;20300;-72
2023/05/15 10:14:51;;;;;;;18.33;10.13;;;20.80;99.90;;;;;;4918823;29;20237;-73
2023/05/15 10:17:20;;;;;;;23.95;11.10;;;20.40;99.90;;;;;;4918465;29;20325;-73
2023/05/15 10:19:50;;;;;;;18.00;10.82;;;20.20;99.90;;;;;;4918531;29;20214;-72
2023/05/15 10:22:19;;;;;;;22.42;10.93;;;20.60;99.90;;;;;;4918483;29;20241;-72
2023/05/15 10:24:48;;;;;;;20.20;10.60;;;20.60;99.90;;;;;;4918404;29;20245;-72
2023/05/15 10:27:16;;;;;;;18.90;10.25;;;20.40;99.90;;;;;;4918045;29;20329;-73
2023/05/15 10:29:45;;;;;;;19.38;10.40;;;20.30;99.90;;;;;;4918008;29;20633;-73
2023/05/15 10:32:13;;;;;;;21.33;12.27;;;20.40;99.90;;;;;;4917153;29;20300;-72
2023/05/15 10:34:40;;;;;;;20.67;11.13;;;20.50;99.90;;;;;;4918352;29;20237;-72
2023/05/15 10:37:09;;;;;;;20.50;10.77;;;20.60;99.90;;;;;;4918191;29;20261;-72
2023/05/15 10:39:39;;;;;;;21.08;11.10;;;20.40;99.90;;;;;;4918236;29;20245;-71
2023/05/15 10:42:07;;;;;;;21.25;10.45;;;20.20;99.90;;;;;;4917798;29;20716;-70
2023/05/15 10:44:34;;;;;;;16.83;9.68;;;20.20;99.90;;;;;;4917559;29;20237;-69
2023/05/15 10:47:02;;;;;;;19.30;9.43;;;20.00;99.90;;;;;;4917785;29;20268;-69
2023/05/15 10:49:29;;;;;;;16.55;9.25;;;19.90;99.90;;;;;;4917897;29;20244;-70
2023/05/15 10:51:59;;;;;;;18.48;9.82;;;19.80;99.90;;;;;;4913439;29;20217;-71
2023/05/15 10:54:28;;;;;;;19.92;9.70;;;20.00;99.90;;;;;;4917612;29;20248;-70
2023/05/15 10:56:56;;;;;;;18.70;9.38;;;19.90;99.90;;;;;;4917508;29;20261;-69
2023/05/15 10:59:31;;;;;;;22.80;10.13;;;20.10;99.90;;;;;;4917701;29;20589;-69
2023/05/15 11:02:19;;;;;;;21.88;10.13;;;20.10;99.90;;;;;;4917560;29;20244;-69
2023/05/15 11:04:46;;;;;;;19.00;9.45;;;19.70;99.90;;;;;;4917436;29;20300;-71
2023/05/15 11:07:15;;;;;;;19.08;9.52;;;19.60;99.90;;;;;;4917349;29;20265;-72
2023/05/15 11:09:43;;;;;;;20.73;9.38;;;19.90;99.90;;;;;;4917170;29;20256;-71
2023/05/15 11:12:10;;;;;;;22.38;9.73;;;20.00;99.90;;;;;;4917354;29;20241;-71
2023/05/15 11:14:40;;;;;;;19.98;9.27;;;20.10;99.90;;;;;;4917585;29;20644;-71
2023/05/15 11:17:08;;;;;;;21.10;9.63;;;20.10;99.90;;;;;;4916971;29;20316;-71
2023/05/15 11:19:38;;;;;;;22.23;9.93;;;20.30;99.90;;;;;;4917126;29;20256;-71
2023/05/15 11:22:17;;;;;;;20.55;10.73;;;20.00;99.90;;;;;;4913398;29;20241;-70
2023/05/15 11:24:51;;;;;;;22.10;11.48;;;19.90;99.90;;;;;;4916756;29;20210;-71
2023/05/15 11:27:19;;;;;;;23.08;11.23;;;20.00;99.90;;;;;;4914811;29;20317;-70
2023/05/15 11:30:14;;;;;;;23.33;11.55;;;20.30;99.90;;;;;;4915181;29;20600;-71
2023/05/15 11:32:42;;;;;;;25.63;12.18;;;20.30;99.90;;;;;;4915508;29;20739;-70
2023/05/15 11:35:10;;;;;;;22.40;10.23;;;20.00;99.90;;;;;;4917747;29;20213;-68
2023/05/15 11:37:38;;;;;;;27.92;11.30;;;19.60;99.90;;;;;;4916893;29;20260;-69
2023/05/15 11:40:09;;;;;;;29.98;12.35;;;19.20;99.90;;;;;;4917280;29;20360;-70
2023/05/15 11:42:36;;;;;;;33.10;13.57;;;18.90;99.90;;;;;;4928274;29;20268;-72
2023/05/15 11:45:04;;;;;;;34.55;13.13;;;18.60;99.90;;;;;;4916498;29;20237;-73
2023/05/15 11:47:32;;;;;;;28.63;12.95;;;18.50;99.90;;;;;;4917989;29;20692;-71
2023/05/15 11:49:59;;;;;;;39.30;14.80;;;18.40;99.90;;;;;;4917134;29;20252;-72
2023/05/15 11:52:27;;;;;;;38.03;14.13;;;18.30;99.90;;;;;;4916151;29;20292;-71
2023/05/15 11:54:56;;;;;;;37.93;14.27;;;18.20;99.90;;;;;;4916856;29;20257;-72
2023/05/15 11:57:24;;;;;;;34.70;14.10;;;18.20;99.90;;;;;;4915527;29;20229;-71
2023/05/15 11:59:54;;;;;;;33.37;13.40;;;18.30;99.90;;;;;;4916347;29;20249;-71
2023/05/15 12:02:21;;;;;;;34.93;13.60;;;18.40;99.90;;;;;;4916865;29;20244;-70
2023/05/15 12:04:49;;;;;;;31.73;13.48;;;18.70;99.90;;;;;;4916543;29;20244;-72
2023/05/15 12:07:17;;;;;;;32.55;12.68;;;18.80;99.90;;;;;;4916377;29;20233;-71
2023/05/15 12:09:49;;;;;;;32.58;12.57;;;18.70;99.90;;;;;;4916601;29;20220;-72
2023/05/15 12:12:16;;;;;;;29.10;11.53;;;18.60;99.90;;;;;;4916396;29;20660;-71
2023/05/15 12:14:45;;;;;;;34.40;13.43;;;18.30;99.90;;;;;;4917060;29;20277;-72
2023/05/15 12:17:11;;;;;;;36.10;13.50;;;18.00;99.90;;;;;;4920497;29;20268;-71
2023/05/15 12:19:40;;;;;;;34.90;13.70;;;18.20;99.90;;;;;;4914847;29;20787;-72
2023/05/15 12:22:07;;;;;;;41.08;14.80;;;18.00;99.90;;;;;;4914845;29;20329;-71
2023/05/15 12:24:38;;;;;;;44.53;15.15;;;18.10;99.90;;;;;;4915602;29;20593;-72
2023/05/15 12:27:06;;;;;;;35.27;13.03;;;18.10;99.90;;;;;;4915221;29;20233;-73
2023/05/15 12:29:33;;;;;;;43.70;14.93;;;18.00;99.90;;;;;;4895969;29;20222;-72
2023/05/15 12:32:01;;;;;;;35.43;14.73;;;17.80;99.90;;;;;;4897102;29;20678;-69
2023/05/15 12:34:28;;;;;;;34.30;13.67;;;17.80;99.90;;;;;;4914845;29;20257;-71
2023/05/15 12:36:58;;;;;;;32.70;12.43;;;18.00;99.90;;;;;;4914565;29;20317;-71
2023/05/15 12:39:26;;;;;;;27.87;12.80;;;18.10;99.90;;;;;;4920824;29;20610;-69
2023/05/15 12:41:53;;;;;;;25.85;11.23;;;18.00;99.90;;;;;;4932651;29;20288;-69
2023/05/15 12:44:20;;;;;;;25.10;11.17;;;18.10;99.90;;;;;;4914837;29;20346;-69
2023/05/15 12:46:48;;;;;;;27.90;11.83;;;18.10;99.90;;;;;;4913032;29;20289;-71
2023/05/15 12:49:22;;;;;;;27.27;10.83;;;17.80;99.90;;;;;;4912861;29;20669;-72
2023/05/15 12:51:49;;;;;;;30.97;12.53;;;17.80;99.90;;;;;;4913274;29;20789;-71
2023/05/15 12:54:17;;;;;;;22.97;10.73;;;17.40;99.90;;;;;;4914280;29;20221;-72
2023/05/15 12:56:44;;;;;;;29.50;12.07;;;17.20;99.90;;;;;;4917241;29;20609;-71
2023/05/15 12:59:12;;;;;;;25.17;10.63;;;16.90;99.90;;;;;;4917423;29;20217;-71
2023/05/15 13:01:40;;;;;;;21.00;8.33;;;16.60;99.90;;;;;;4918404;29;20695;-73
2023/05/15 13:04:08;;;;;;;18.20;7.73;;;16.20;99.90;;;;;;4918781;29;20222;-70
2023/05/15 13:06:38;;;;;;;17.80;6.47;;;16.10;99.90;;;;;;4917853;29;20230;-71
2023/05/15 13:09:06;;;;;;;14.20;5.47;;;15.90;99.90;;;;;;4918098;29;20296;-70
2023/05/15 13:11:33;;;;;;;14.17;6.10;;;15.60;99.90;;;;;;4918193;29;20209;-70
2023/05/15 13:14:00;;;;;;;17.67;5.67;;;15.60;99.90;;;;;;4917747;29;20305;-70
2023/05/15 13:16:29;;;;;;;16.10;6.20;;;15.60;99.90;;;;;;4918097;29;20233;-72
2023/05/15 13:18:56;;;;;;;15.00;5.70;;;15.80;99.90;;;;;;4922343;29;20764;-70
2023/05/15 13:21:23;;;;;;;12.13;5.53;;;15.90;99.90;;;;;;4917965;29;20372;-69
2023/05/15 13:23:52;;;;;;;13.80;6.27;;;16.00;99.90;;;;;;4917575;29;20736;-68
2023/05/15 13:26:19;;;;;;;12.33;5.57;;;15.90;99.90;;;;;;4918303;29;20268;-70
2023/05/15 13:28:46;;;;;;;9.03;3.77;;;15.70;99.90;;;;;;4918524;29;20633;-70
2023/05/15 13:31:13;;;;;;;4.50;2.30;;;15.50;99.90;;;;;;4919088;29;20618;-72
2023/05/15 13:33:40;;;;;;;11.17;4.57;;;15.30;99.90;;;;;;4917606;29;20300;-70
2023/05/15 13:36:07;;;;;;;2.80;1.40;;;15.50;99.90;;;;;;4917746;29;20625;-69
2023/05/15 13:38:34;;;;;;;3.37;1.47;;;15.30;99.90;;;;;;4917839;29;20256;-70
2023/05/15 13:41:04;;;;;;;7.80;3.33;;;15.20;99.90;;;;;;4918045;29;20241;-70
2023/05/15 13:43:31;;;;;;;2.23;1.00;;;15.00;99.90;;;;;;4917252;29;20742;-70
2023/05/15 13:45:58;;;;;;;2.30;0.80;;;14.90;99.90;;;;;;4917314;29;20234;-71
2023/05/15 13:48:24;;;;;;;3.23;0.87;;;14.80;99.90;;;;;;4917408;29;20300;-71
2023/05/15 13:50:51;;;;;;;2.13;1.00;;;14.70;99.90;;;;;;4917840;29;20248;-70
2023/05/15 13:53:18;;;;;;;0.97;0.60;;;14.60;99.90;;;;;;4917821;29;20214;-72
2023/05/15 13:55:46;;;;;;;1.93;0.50;;;14.50;99.90;;;;;;4917834;29;20272;-71
2023/05/15 13:58:14;;;;;;;1.80;0.60;;;14.30;99.90;;;;;;4917261;29;20674;-72
2023/05/15 14:00:44;;;;;;;2.10;0.60;;;14.20;99.90;;;;;;4917702;29;20256;-71
2023/05/15 14:03:11;;;;;;;0.87;0.57;;;14.10;99.90;;;;;;4917181;29;20241;-71
2023/05/15 14:05:38;;;;;;;2.93;0.60;;;14.00;99.90;;;;;;4916571;29;20288;-71
2023/05/15 14:08:05;;;;;;;3.53;0.90;;;14.10;99.90;;;;;;4917151;29;20305;-71
2023/05/15 14:10:32;;;;;;;1.67;0.87;;;14.00;99.90;;;;;;4917499;29;20241;-72
2023/05/15 14:12:59;;;;;;;1.67;0.80;;;14.00;99.90;;;;;;4916822;29;20244;-72
2023/05/15 14:15:27;;;;;;;3.33;0.80;;;14.00;99.90;;;;;;4916840;29;20256;-72
2023/05/15 14:17:54;;;;;;;1.83;0.77;;;14.00;99.90;;;;;;4921353;29;20634;-72
2023/05/15 14:20:21;;;;;;;1.90;0.53;;;14.00;99.90;;;;;;4917256;29;20300;-73
2023/05/15 14:22:48;;;;;;;3.83;0.80;;;14.00;99.90;;;;;;4916590;29;20336;-72
2023/05/15 14:25:15;;;;;;;1.20;1.00;;;13.80;99.90;;;;;;4916718;29;20293;-72
2023/05/15 14:27:42;;;;;;;2.73;0.97;;;13.70;99.90;;;;;;4917287;29;20260;-71
2023/05/15 14:30:09;;;;;;;2.37;0.93;;;13.60;99.90;;;;;;4916799;29;20260;-71
2023/05/15 14:32:38;;;;;;;4.17;0.97;;;13.40;99.90;;;;;;4922652;29;20237;-71
2023/05/15 14:35:05;;;;;;;6.47;1.10;;;13.20;99.90;;;;;;4919227;29;20218;-72
2023/05/15 14:37:32;;;;;;;3.60;1.27;;;13.00;99.90;;;;;;4916412;29;20222;-72
2023/05/15 14:39:59;;;;;;;4.83;1.07;;;12.90;99.90;;;;;;4916521;29;20704;-72
2023/05/15 14:42:27;;;;;;;4.67;1.30;;;12.90;99.90;;;;;;4916320;29;20299;-72
2023/05/15 14:44:53;;;;;;;1.50;1.07;;;13.00;99.90;;;;;;4916918;29;20292;-72
2023/05/15 14:47:20;;;;;;;5.97;1.33;;;13.20;99.90;;;;;;4919022;29;20265;-72
2023/05/15 14:49:49;;;;;;;3.23;1.23;;;13.30;99.90;;;;;;4917467;29;20256;-72
2023/05/15 14:52:16;;;;;;;3.07;1.40;;;13.40;99.90;;;;;;4917902;29;20261;-73
2023/05/15 14:54:46;;;;;;;4.50;1.30;;;13.10;99.90;;;;;;4934315;29;20268;-73
2023/05/15 14:57:18;;;;;;;5.90;1.53;;;13.10;99.90;;;;;;4934523;29;20264;-74
2023/05/15 14:59:45;;;;;;;6.17;1.40;;;13.00;99.90;;;;;;4916114;29;20214;-73
2023/05/15 15:02:12;;;;;;;2.87;1.20;;;12.90;99.90;;;;;;4915941;29;20233;-74
2023/05/15 15:04:39;;;;;;;3.63;1.13;;;12.80;99.90;;;;;;4916017;29;20737;-73
2023/05/15 15:07:10;;;;;;;2.37;1.23;;;12.70;99.90;;;;;;4916062;29;20240;-73
2023/05/15 15:09:38;;;;;;;2.77;1.30;;;12.60;99.90;;;;;;4912752;29;20214;-74
2023/05/15 15:12:05;;;;;;;8.97;2.00;;;12.60;99.90;;;;;;4915476;29;20214;-74
2023/05/15 15:14:32;;;;;;;3.07;1.10;;;12.80;99.90;;;;;;4916156;29;20205;-73
2023/05/15 15:16:59;;;;;;;5.57;1.40;;;12.80;99.90;;;;;;4929499;29;20225;-72
2023/05/15 15:19:26;;;;;;;3.27;1.33;;;13.00;99.90;;;;;;4916689;29;20326;-73
2023/05/15 15:21:53;;;;;;;3.10;1.07;;;13.20;99.90;;;;;;4916211;29;20304;-72
2023/05/15 15:24:21;;;;;;;3.40;1.17;;;13.40;99.90;;;;;;4916465;29;20237;-73
2023/05/15 15:26:48;;;;;;;3.57;1.10;;;13.60;99.90;;;;;;4915753;29;20261;-69
2023/05/15 15:29:15;;;;;;;4.40;1.20;;;13.70;99.90;;;;;;4928844;29;20255;-72
2023/05/15 15:31:43;;;;;;;3.13;1.20;;;13.80;99.90;;;;;;4916998;29;20240;-70
2023/05/15 15:34:11;;;;;;;2.90;1.33;;;13.70;99.90;;;;;;4927997;29;20683;-70
2023/05/15 15:36:40;;;;;;;3.20;1.50;;;13.70;99.90;;;;;;4915543;29;20225;-73
2023/05/15 15:39:07;;;;;;;2.97;1.13;;;13.70;99.90;;;;;;4925045;29;20564;-70
2023/05/15 15:41:38;;;;;;;3.93;1.20;;;13.70;99.90;;;;;;4916751;29;20300;-70
2023/05/15 15:44:05;;;;;;;3.03;1.20;;;13.50;99.90;;;;;;4924057;29;20237;-69
2023/05/15 15:46:33;;;;;;;2.93;1.20;;;13.50;99.90;;;;;;4937268;29;20236;-73
2023/05/15 15:49:00;;;;;;;1.30;1.00;;;13.50;99.90;;;;;;4921219;29;20269;-70
2023/05/15 15:51:27;;;;;;;4.13;1.40;;;13.60;99.90;;;;;;4916833;29;20301;-69
2023/05/15 15:53:54;;;;;;;5.60;1.40;;;13.70;99.90;;;;;;4915692;29;20634;-68
2023/05/15 15:56:21;;;;;;;1.90;1.07;;;13.70;99.90;;;;;;4915382;29;20233;-68
2023/05/15 15:58:49;;;;;;;3.97;1.13;;;13.80;99.90;;;;;;4915420;29;20217;-69
2023/05/15 16:01:16;;;;;;;2.03;1.10;;;13.80;99.90;;;;;;4910625;29;20297;-69
2023/05/15 16:03:43;;;;;;;2.87;1.10;;;14.00;99.90;;;;;;4915324;29;20328;-75
2023/05/15 16:06:10;;;;;;;6.20;1.27;;;14.00;99.90;;;;;;4933163;29;20260;-75
2023/05/15 16:08:37;;;;;;;3.27;1.30;;;13.90;99.90;;;;;;4923730;29;20245;-77
2023/05/15 16:11:04;;;;;;;4.83;1.53;;;14.00;99.90;;;;;;4916573;29;20630;-78
2023/05/15 16:13:30;;;;;;;3.90;1.30;;;14.00;99.90;;;;;;4917020;29;20249;-76
2023/05/15 16:15:59;;;;;;;5.27;1.60;;;14.10;99.90;;;;;;4916636;29;20265;-70
2023/05/15 16:18:26;;;;;;;3.77;1.83;;;13.90;99.90;;;;;;4916872;29;20248;-72
2023/05/15 16:20:53;;;;;;;5.23;1.50;;;13.90;99.90;;;;;;4916601;29;20209;-73
2023/05/15 16:23:20;;;;;;;5.03;1.20;;;13.50;99.90;;;;;;4916516;29;20268;-75
2023/05/15 16:25:47;;;;;;;2.67;1.30;;;13.50;99.90;;;;;;4916451;29;20292;-76
2023/05/15 16:28:14;;;;;;;5.97;1.40;;;13.40;99.90;;;;;;4916555;29;20249;-74
2023/05/15 16:30:41;;;;;;;4.47;1.60;;;13.50;99.90;;;;;;4920072;29;20252;-84
2023/05/15 16:33:09;;;;;;;4.53;1.53;;;13.40;99.90;;;;;;4920584;29;20245;-85
2023/05/15 16:35:36;;;;;;;3.10;1.20;;;13.40;99.90;;;;;;4920021;29;20292;-70
2023/05/15 16:38:03;;;;;;;5.67;1.20;;;13.40;99.90;;;;;;4920428;29;20217;-82
2023/05/15 16:40:30;;;;;;;3.87;1.30;;;13.30;99.90;;;;;;4920022;29;20752;-80
2023/05/15 16:42:57;;;;;;;2.90;1.27;;;13.30;99.90;;;;;;4920119;29;20685;-81
2023/05/15 16:45:24;;;;;;;3.97;1.60;;;13.20;99.90;;;;;;4920441;29;20205;-81
2023/05/15 16:47:51;;;;;;;3.83;1.30;;;13.20;99.90;;;;;;4920162;29;20218;-74
2023/05/15 16:50:20;;;;;;;3.40;1.17;;;13.30;99.90;;;;;;4920003;29;20300;-69
2023/05/15 16:52:47;;;;;;;4.07;1.37;;;13.30;99.90;;;;;;4919826;29;20293;-69
2023/05/15 16:55:16;;;;;;;3.63;1.43;;;13.40;99.90;;;;;;4919716;29;20245;-69
